Time;durP1;ratioP1;P1;durP2;ratioP2;P2;SDS_P1;SDS_P2;PMS_P1;PMS_P2;Temp;Humidity;BMP_temperature;BMP_pressure;BME280_temperature;BME280_humidity;BME280_pressure;Samples;Min_cycle;Max_cycle;Signal;HPM_P1;HPM_P2
2021/06/19 00:01:58;;;;;;;2.50;2.40;;;20.20;98.90;;;;;;5113015;28;20454;-62
2021/06/19 00:04:24;;;;;;;3.30;3.10;;;20.20;98.60;;;;;;5112898;28;20764;-62
2021/06/19 00:06:50;;;;;;;3.50;3.17;;;20.20;98.90;;;;;;5112393;28;20223;-62
2021/06/19 00:09:16;;;;;;;2.70;2.60;;;20.20;98.80;;;;;;5112948;28;20745;-63
2021/06/19 00:11:42;;;;;;;2.87;2.67;;;20.20;99.00;;;;;;5112840;28;20419;-62
2021/06/19 00:14:08;;;;;;;2.20;2.10;;;20.10;99.20;;;;;;5112742;28;20153;-62
2021/06/19 00:16:33;;;;;;;3.10;2.90;;;20.00;99.40;;;;;;5112447;28;20758;-62
2021/06/19 00:19:01;;;;;;;3.13;2.83;;;20.20;99.10;;;;;;5112668;28;20197;-63
2021/06/19 00:21:27;;;;;;;3.10;2.80;;;20.20;99.10;;;;;;5112615;28;20242;-63
2021/06/19 00:23:52;;;;;;;3.00;2.90;;;20.20;99.10;;;;;;5112565;28;20449;-62
2021/06/19 00:26:18;;;;;;;2.67;2.57;;;20.10;99.30;;;;;;5112470;28;20801;-63
2021/06/19 00:28:43;;;;;;;2.70;2.50;;;20.10;99.40;;;;;;5112244;28;20174;-62
2021/06/19 00:31:09;;;;;;;2.30;2.20;;;20.00;99.70;;;;;;5112645;28;20166;-63
2021/06/19 00:33:34;;;;;;;2.60;2.50;;;20.00;99.50;;;;;;5112442;28;20158;-62
2021/06/19 00:36:00;;;;;;;2.43;2.07;;;19.90;99.90;;;;;;5111544;28;20618;-62
2021/06/19 00:38:25;;;;;;;3.17;2.87;;;19.80;99.70;;;;;;5112060;28;20235;-62
2021/06/19 00:40:51;;;;;;;2.97;2.77;;;19.90;99.70;;;;;;5112407;28;20204;-63
2021/06/19 00:43:17;;;;;;;2.80;2.60;;;19.90;99.90;;;;;;5112361;28;20170;-63
2021/06/19 00:45:43;;;;;;;2.80;2.70;;;19.90;99.90;;;;;;5112259;28;20547;-63
2021/06/19 00:48:10;;;;;;;2.70;2.60;;;19.90;99.90;;;;;;5112003;28;20178;-63
2021/06/19 00:50:37;;;;;;;2.53;2.40;;;19.90;99.90;;;;;;5110945;28;20166;-62
2021/06/19 00:53:03;;;;;;;2.90;2.80;;;19.80;99.90;;;;;;5110639;28;20498;-62
2021/06/19 00:55:29;;;;;;;2.90;2.70;;;19.80;99.90;;;;;;5112315;28;20482;-62
2021/06/19 00:57:57;;;;;;;2.77;2.57;;;19.90;99.90;;;;;;5111890;28;20846;-62
2021/06/19 01:00:23;;;;;;;2.50;2.30;;;19.80;99.90;;;;;;5112155;28;20922;-63
2021/06/19 01:02:52;;;;;;;3.57;2.57;;;19.70;99.90;;;;;;5112145;28;20415;-62
2021/06/19 01:05:18;;;;;;;2.93;2.70;;;19.70;99.90;;;;;;5111148;28;20189;-62
2021/06/19 01:07:43;;;;;;;2.47;2.37;;;19.70;99.90;;;;;;5111756;28;20423;-62
2021/06/19 01:10:10;;;;;;;3.10;2.90;;;19.70;99.90;;;;;;5112120;28;20161;-63
2021/06/19 01:12:36;;;;;;;2.93;2.80;;;19.70;99.90;;;;;;5111930;28;20169;-62
2021/06/19 01:15:02;;;;;;;3.63;3.33;;;19.60;99.90;;;;;;5112099;28;20400;-63
2021/06/19 01:17:28;;;;;;;2.70;2.60;;;19.60;99.90;;;;;;5111661;28;20338;-62
2021/06/19 01:20:00;;;;;;;3.10;2.60;;;19.70;99.90;;;;;;5111967;28;20491;-63
2021/06/19 01:22:26;;;;;;;2.27;2.17;;;19.60;99.90;;;;;;5111920;28;20171;-62
2021/06/19 01:24:51;;;;;;;3.00;2.90;;;19.60;99.90;;;;;;5111862;28;20550;-62
2021/06/19 01:27:17;;;;;;;3.10;3.00;;;19.60;99.90;;;;;;5111556;28;20514;-63
2021/06/19 01:29:43;;;;;;;3.13;3.03;;;19.60;99.90;;;;;;5111971;28;20158;-63
2021/06/19 01:32:09;;;;;;;2.67;2.47;;;19.50;99.90;;;;;;5111933;28;20185;-62
2021/06/19 01:34:34;;;;;;;2.50;2.40;;;19.50;99.90;;;;;;5111778;28;20399;-63
2021/06/19 01:37:00;;;;;;;2.70;2.50;;;19.40;99.90;;;;;;5111491;28;20658;-63
2021/06/19 01:39:25;;;;;;;4.43;2.80;;;19.30;99.90;;;;;;5111924;28;20170;-62
2021/06/19 01:41:51;;;;;;;2.70;2.57;;;19.30;99.90;;;;;;5111820;28;20158;-62
2021/06/19 01:44:17;;;;;;;2.50;2.40;;;19.20;99.90;;;;;;5111771;28;20162;-62
2021/06/19 01:46:42;;;;;;;2.43;2.23;;;19.20;99.90;;;;;;5112156;28;20197;-63
2021/06/19 01:49:09;;;;;;;2.83;2.63;;;19.10;99.90;;;;;;5115408;28;20192;-63
2021/06/19 01:51:36;;;;;;;3.00;2.50;;;19.00;99.90;;;;;;5115635;28;20181;-63
2021/06/19 01:54:01;;;;;;;2.80;2.70;;;19.00;99.90;;;;;;5115406;28;20461;-63
2021/06/19 01:56:27;;;;;;;2.60;2.50;;;19.00;99.90;;;;;;5115264;28;20395;-63
2021/06/19 01:58:53;;;;;;;2.57;2.37;;;19.00;99.90;;;;;;5115282;28;20550;-63
2021/06/19 02:01:19;;;;;;;2.37;2.27;;;18.90;99.90;;;;;;5115185;28;20280;-62
2021/06/19 02:03:46;;;;;;;2.20;2.10;;;18.90;99.90;;;;;;5115184;28;20253;-63
2021/06/19 02:06:12;;;;;;;2.27;2.17;;;18.80;99.90;;;;;;5115002;28;20469;-63
2021/06/19 02:08:38;;;;;;;3.33;2.50;;;18.80;99.90;;;;;;5115036;28;20506;-62
2021/06/19 02:11:05;;;;;;;2.30;2.20;;;18.70;99.90;;;;;;5115212;28;20162;-62
2021/06/19 02:13:32;;;;;;;2.70;2.60;;;18.80;99.90;;;;;;5115074;28;20396;-63
2021/06/19 02:15:58;;;;;;;2.87;2.70;;;18.70;99.90;;;;;;5115057;28;20811;-61
2021/06/19 02:18:25;;;;;;;2.90;2.70;;;18.60;99.90;;;;;;5114585;28;20430;-63
2021/06/19 02:20:52;;;;;;;2.33;2.23;;;18.70;99.90;;;;;;5114957;28;20166;-63
2021/06/19 02:23:25;;;;;;;2.80;2.70;;;18.60;99.90;;;;;;5114923;28;20396;-62
2021/06/19 02:25:52;;;;;;;2.30;2.20;;;18.50;99.90;;;;;;5114869;28;20447;-62
2021/06/19 02:28:21;;;;;;;3.30;3.10;;;18.40;99.90;;;;;;5114454;28;20476;-62
2021/06/19 02:30:48;;;;;;;2.63;2.53;;;18.40;99.90;;;;;;5114757;28;20392;-62
2021/06/19 02:33:15;;;;;;;2.90;2.70;;;18.40;99.90;;;;;;5114623;28;20400;-63
2021/06/19 02:35:47;;;;;;;3.10;2.90;;;18.40;99.90;;;;;;5114713;28;20399;-62
2021/06/19 02:38:14;;;;;;;3.30;3.20;;;18.30;99.90;;;;;;5114251;28;20941;-63
2021/06/19 02:40:40;;;;;;;3.10;3.00;;;18.30;99.90;;;;;;5114572;28;20442;-62
2021/06/19 02:43:06;;;;;;;2.57;2.47;;;18.30;99.90;;;;;;5114718;28;20906;-63
2021/06/19 02:45:32;;;;;;;3.60;3.30;;;18.40;99.90;;;;;;5114402;28;20447;-63
2021/06/19 02:47:58;;;;;;;2.90;2.70;;;18.40;99.90;;;;;;5114027;28;20760;-63
2021/06/19 02:50:26;;;;;;;3.50;3.13;;;18.40;99.90;;;;;;5114451;28;20755;-63
2021/06/19 02:52:53;;;;;;;2.67;2.57;;;18.30;99.90;;;;;;5114272;28;21017;-62
2021/06/19 02:55:30;;;;;;;3.00;2.83;;;18.40;99.90;;;;;;5114269;28;20406;-62
2021/06/19 02:57:56;;;;;;;2.90;2.33;;;18.30;99.90;;;;;;5113259;28;20415;-62
2021/06/19 03:00:23;;;;;;;2.57;2.40;;;18.30;99.90;;;;;;5113840;28;20439;-62
2021/06/19 03:02:49;;;;;;;2.97;2.83;;;18.30;99.90;;;;;;5114114;28;20445;-62
2021/06/19 03:05:19;;;;;;;3.03;2.83;;;18.30;99.90;;;;;;5114031;28;20887;-62
2021/06/19 03:07:45;;;;;;;2.83;2.73;;;18.30;99.90;;;;;;5113786;28;20636;-62
2021/06/19 03:10:14;;;;;;;2.90;2.70;;;18.20;99.90;;;;;;5113941;28;20452;-63
2021/06/19 03:12:39;;;;;;;3.23;2.93;;;18.20;99.90;;;;;;5113596;28;20752;-63
2021/06/19 03:15:07;;;;;;;3.00;2.80;;;18.20;99.90;;;;;;5113852;28;20410;-62
2021/06/19 03:17:33;;;;;;;3.10;2.60;;;18.10;99.90;;;;;;5113987;28;20563;-63
2021/06/19 03:19:58;;;;;;;2.77;2.67;;;18.10;99.90;;;;;;5113774;28;20419;-63
2021/06/19 03:22:24;;;;;;;2.97;2.80;;;18.00;99.90;;;;;;5113874;28;20169;-62
2021/06/19 03:24:50;;;;;;;2.50;2.40;;;17.90;99.90;;;;;;5113524;28;20181;-62
2021/06/19 03:27:17;;;;;;;2.97;2.87;;;18.00;99.90;;;;;;5113254;28;20189;-62
2021/06/19 03:29:43;;;;;;;3.47;3.17;;;17.90;99.90;;;;;;5113691;28;20169;-63
2021/06/19 03:32:09;;;;;;;2.73;2.53;;;17.80;99.90;;;;;;5113518;28;20483;-62
2021/06/19 03:34:37;;;;;;;2.80;2.67;;;17.90;99.90;;;;;;5113387;28;20486;-63
2021/06/19 03:37:04;;;;;;;3.77;3.10;;;17.90;99.90;;;;;;5113120;28;20486;-62
2021/06/19 03:39:31;;;;;;;3.20;2.90;;;17.80;99.90;;;;;;5113377;28;20783;-62
2021/06/19 03:41:58;;;;;;;2.90;2.80;;;17.90;99.90;;;;;;5113406;28;20399;-63
2021/06/19 03:44:24;;;;;;;2.93;2.83;;;17.90;99.90;;;;;;5113366;28;20408;-62
2021/06/19 03:46:51;;;;;;;2.40;2.30;;;17.90;99.90;;;;;;5112812;28;20455;-62
2021/06/19 03:49:17;;;;;;;2.93;2.77;;;18.00;99.90;;;;;;5113282;28;20400;-62
2021/06/19 03:51:44;;;;;;;4.37;3.97;;;17.90;99.90;;;;;;5113173;28;20404;-62
2021/06/19 03:54:10;;;;;;;14.57;2.53;;;17.90;99.90;;;;;;5113036;28;20406;-62
2021/06/19 03:56:36;;;;;;;2.73;2.63;;;18.00;99.90;;;;;;5112870;28;20408;-62
2021/06/19 03:59:02;;;;;;;3.37;3.13;;;17.80;99.90;;;;;;5113027;28;20273;-62
2021/06/19 04:01:27;;;;;;;3.77;3.40;;;17.90;99.90;;;;;;5112885;28;20587;-62
2021/06/19 04:03:53;;;;;;;3.03;2.87;;;17.80;99.90;;;;;;5112943;28;20411;-62
2021/06/19 04:06:18;;;;;;;3.00;2.90;;;17.80;99.90;;;;;;5112887;28;20583;-62
2021/06/19 04:08:44;;;;;;;2.33;2.13;;;17.80;99.90;;;;;;5112498;28;20556;-62
2021/06/19 04:11:13;;;;;;;3.70;2.50;;;17.90;99.90;;;;;;5112626;28;20184;-62
2021/06/19 04:13:39;;;;;;;2.70;2.50;;;17.90;99.90;;;;;;5112802;28;20184;-62
2021/06/19 04:16:05;;;;;;;2.80;2.60;;;18.00;99.90;;;;;;5112734;28;20412;-62
2021/06/19 04:18:30;;;;;;;2.90;2.40;;;18.00;99.90;;;;;;5112385;28;20189;-62
2021/06/19 04:20:56;;;;;;;2.33;2.20;;;18.10;99.90;;;;;;5112734;28;20448;-62
2021/06/19 04:23:21;;;;;;;2.83;2.50;;;18.10;99.90;;;;;;5112527;28;20174;-62
2021/06/19 04:25:47;;;;;;;2.93;2.70;;;18.10;99.90;;;;;;5112602;28;20196;-62
2021/06/19 04:28:12;;;;;;;2.27;2.17;;;18.10;99.90;;;;;;5112235;28;20700;-63
2021/06/19 04:30:38;;;;;;;3.17;2.97;;;18.30;99.90;;;;;;5112538;28;20663;-62
2021/06/19 04:33:04;;;;;;;3.00;2.83;;;18.30;99.90;;;;;;5112526;28;20687;-62
2021/06/19 04:35:30;;;;;;;2.80;2.70;;;18.30;99.90;;;;;;5112542;28;20268;-62
2021/06/19 04:37:55;;;;;;;2.23;2.13;;;18.40;99.90;;;;;;5111978;28;20475;-62
2021/06/19 04:43:06;;;;;;;2.83;2.63;;;18.30;99.90;;;;;;5112582;28;20177;-62
2021/06/19 04:45:33;;;;;;;2.53;2.43;;;18.40;99.90;;;;;;5112344;28;20439;-62
2021/06/19 04:48:00;;;;;;;3.00;2.80;;;18.40;99.90;;;;;;5111938;28;20419;-62
2021/06/19 04:50:25;;;;;;;2.33;2.23;;;18.50;99.90;;;;;;5112283;28;20823;-63
2021/06/19 04:52:51;;;;;;;2.90;2.70;;;18.50;99.90;;;;;;5112285;28;20446;-62
2021/06/19 04:55:19;;;;;;;2.60;2.50;;;18.60;99.90;;;;;;5112460;28;20197;-62
2021/06/19 04:57:56;;;;;;;2.47;2.27;;;18.50;99.90;;;;;;5111844;28;20453;-62
2021/06/19 05:00:23;;;;;;;3.07;2.23;;;18.60;99.90;;;;;;5112271;28;20463;-62
2021/06/19 05:02:49;;;;;;;2.43;2.33;;;18.70;99.90;;;;;;5112166;28;20411;-62
2021/06/19 05:05:15;;;;;;;2.10;2.00;;;18.60;99.90;;;;;;5112308;28;20451;-62
2021/06/19 05:07:40;;;;;;;2.50;2.40;;;18.70;99.90;;;;;;5112072;28;20664;-62
2021/06/19 05:10:08;;;;;;;2.10;2.00;;;18.70;99.90;;;;;;5112179;28;20396;-63
2021/06/19 05:12:35;;;;;;;2.87;2.67;;;18.80;99.90;;;;;;5112025;28;20177;-62
2021/06/19 05:15:05;;;;;;;3.07;2.47;;;18.80;99.90;;;;;;5112077;28;20411;-63
2021/06/19 05:17:31;;;;;;;2.03;1.93;;;18.80;99.90;;;;;;5111665;28;20480;-62
2021/06/19 05:19:57;;;;;;;2.17;2.07;;;18.90;99.90;;;;;;5112156;28;20888;-62
2021/06/19 05:22:24;;;;;;;2.30;2.00;;;18.90;99.90;;;;;;5113977;28;20404;-62
2021/06/19 05:24:50;;;;;;;3.90;2.27;;;18.90;99.90;;;;;;5115952;28;20403;-62
2021/06/19 05:27:16;;;;;;;2.83;2.40;;;18.90;99.90;;;;;;5115548;28;20913;-62
2021/06/19 05:29:41;;;;;;;2.10;1.93;;;18.90;99.90;;;;;;5115956;28;20211;-62
2021/06/19 05:32:07;;;;;;;2.50;2.40;;;19.00;99.90;;;;;;5115850;28;20412;-62
2021/06/19 05:34:33;;;;;;;2.10;2.00;;;19.00;99.90;;;;;;5115846;28;20162;-62
2021/06/19 05:36:59;;;;;;;2.03;1.93;;;19.10;99.90;;;;;;5115465;28;20403;-63
2021/06/19 05:39:25;;;;;;;2.17;1.97;;;19.20;99.90;;;;;;5115811;28;20416;-63
2021/06/19 05:41:51;;;;;;;2.30;2.20;;;19.20;99.90;;;;;;5114740;28;20431;-62
2021/06/19 05:44:17;;;;;;;2.37;2.27;;;19.30;99.90;;;;;;5115410;28;20246;-62
2021/06/19 05:46:42;;;;;;;2.03;1.93;;;19.30;99.90;;;;;;5115175;28;20194;-62
2021/06/19 05:49:08;;;;;;;1.73;1.73;;;19.40;99.90;;;;;;5115444;28;20480;-62
2021/06/19 05:51:34;;;;;;;2.27;2.17;;;19.40;99.90;;;;;;5115572;28;20177;-62
2021/06/19 05:54:02;;;;;;;1.90;1.83;;;19.50;99.90;;;;;;5115415;28;20404;-62
2021/06/19 05:56:28;;;;;;;2.00;1.90;;;19.60;99.90;;;;;;5115161;28;20418;-62
2021/06/19 05:58:53;;;;;;;1.83;1.80;;;19.70;99.90;;;;;;5115263;28;20812;-62
2021/06/19 06:01:19;;;;;;;2.13;2.03;;;19.70;99.90;;;;;;5115050;28;20238;-62
2021/06/19 06:03:44;;;;;;;2.03;1.93;;;19.70;99.90;;;;;;5115296;28;20186;-62
2021/06/19 06:06:10;;;;;;;2.23;1.93;;;19.80;99.90;;;;;;5115134;28;20292;-63
2021/06/19 06:08:36;;;;;;;2.10;2.00;;;19.80;99.90;;;;;;5114911;28;20190;-62
2021/06/19 06:11:02;;;;;;;2.00;1.90;;;19.80;99.90;;;;;;5115258;28;20205;-62
2021/06/19 06:13:28;;;;;;;2.20;2.10;;;19.80;99.90;;;;;;5115026;28;20162;-62
2021/06/19 06:15:53;;;;;;;2.20;2.10;;;19.90;99.90;;;;;;5115079;28;20958;-62
2021/06/19 06:18:19;;;;;;;2.13;2.03;;;20.00;99.90;;;;;;5114718;28;20212;-60
2021/06/19 06:20:44;;;;;;;2.07;1.97;;;20.00;99.90;;;;;;5114994;28;20634;-62
2021/06/19 06:23:10;;;;;;;2.10;1.97;;;20.00;99.90;;;;;;5114873;28;20177;-62
2021/06/19 06:25:36;;;;;;;2.47;2.17;;;20.10;99.90;;;;;;5114949;28;20204;-62
2021/06/19 06:28:02;;;;;;;2.43;2.33;;;20.20;99.90;;;;;;5114467;28;20182;-63
2021/06/19 06:30:28;;;;;;;2.00;1.90;;;20.20;99.90;;;;;;5114687;28;20162;-62
2021/06/19 06:32:53;;;;;;;2.00;1.90;;;20.20;99.90;;;;;;5114632;28;20403;-62
2021/06/19 06:35:19;;;;;;;2.33;2.23;;;20.30;99.90;;;;;;5114734;28;20400;-63
2021/06/19 06:37:45;;;;;;;2.33;2.23;;;20.30;99.90;;;;;;5114318;28;20197;-62
2021/06/19 06:40:13;;;;;;;2.10;2.00;;;20.40;99.90;;;;;;5114661;28;20719;-63
2021/06/19 06:42:41;;;;;;;1.97;1.90;;;20.50;99.90;;;;;;5114415;28;20942;-62
2021/06/19 06:45:11;;;;;;;1.90;1.80;;;20.60;99.90;;;;;;5114444;28;20480;-62
2021/06/19 06:47:38;;;;;;;2.00;1.90;;;20.70;99.80;;;;;;5114098;28;20424;-62
2021/06/19 06:50:06;;;;;;;2.80;2.03;;;20.80;99.90;;;;;;5114441;28;20938;-62
2021/06/19 06:52:33;;;;;;;2.13;1.93;;;20.80;99.90;;;;;;5114334;28;20408;-62
2021/06/19 06:54:58;;;;;;;2.40;2.23;;;20.80;99.90;;;;;;5114667;28;20400;-62
2021/06/19 06:57:24;;;;;;;2.10;2.00;;;20.90;99.60;;;;;;5113823;28;20427;-63
2021/06/19 06:59:50;;;;;;;2.47;2.37;;;20.90;99.50;;;;;;5114250;28;20614;-63
2021/06/19 07:02:15;;;;;;;3.57;2.00;;;21.00;99.90;;;;;;5114144;28;20255;-62
2021/06/19 07:04:41;;;;;;;2.03;1.93;;;21.10;99.90;;;;;;5114148;28;20581;-62
2021/06/19 07:07:07;;;;;;;2.10;2.00;;;21.20;99.90;;;;;;5113681;28;20284;-62
2021/06/19 07:09:32;;;;;;;2.20;2.10;;;21.30;99.10;;;;;;5114072;28;20173;-63
2021/06/19 07:11:58;;;;;;;2.40;2.30;;;21.40;98.90;;;;;;5113941;28;20223;-62
2021/06/19 07:14:23;;;;;;;2.43;2.33;;;21.40;98.40;;;;;;5113934;28;20176;-62
2021/06/19 07:16:49;;;;;;;2.07;1.97;;;21.50;98.20;;;;;;5113564;28;20178;-62
2021/06/19 07:19:14;;;;;;;1.97;1.87;;;21.60;98.00;;;;;;5113861;28;20637;-63
2021/06/19 07:21:40;;;;;;;1.80;1.70;;;21.70;97.50;;;;;;5113851;28;20546;-63
2021/06/19 07:24:06;;;;;;;2.03;1.93;;;21.80;97.40;;;;;;5113738;28;20174;-63
2021/06/19 07:26:31;;;;;;;2.20;2.10;;;21.90;97.80;;;;;;5113307;28;20197;-62
2021/06/19 07:28:58;;;;;;;2.20;2.10;;;22.00;97.80;;;;;;5113614;28;20194;-63
2021/06/19 07:31:24;;;;;;;1.83;1.73;;;22.10;97.00;;;;;;5113703;28;20629;-63
2021/06/19 07:33:50;;;;;;;1.60;1.60;;;22.10;96.80;;;;;;5113551;28;20403;-63
2021/06/19 07:36:15;;;;;;;2.70;2.57;;;22.20;96.50;;;;;;5113538;28;20209;-63
2021/06/19 07:38:41;;;;;;;2.03;1.93;;;22.40;96.20;;;;;;5113152;28;20262;-62
2021/06/19 07:41:06;;;;;;;2.50;2.40;;;22.40;96.10;;;;;;5113390;28;20174;-62
2021/06/19 07:43:32;;;;;;;2.13;2.03;;;22.50;96.60;;;;;;5113330;28;20174;-62
2021/06/19 07:46:00;;;;;;;2.20;2.10;;;22.60;96.20;;;;;;5112761;28;20557;-62
2021/06/19 07:48:26;;;;;;;2.40;2.20;;;22.70;96.10;;;;;;5113049;28;20193;-63
2021/06/19 07:50:52;;;;;;;1.90;1.90;;;22.80;95.70;;;;;;5113341;28;20403;-63
2021/06/19 07:53:18;;;;;;;2.60;2.10;;;22.80;95.70;;;;;;5113157;28;20400;-62
2021/06/19 07:55:43;;;;;;;2.50;2.40;;;23.00;96.20;;;;;;5112980;28;20170;-63
2021/06/19 07:58:09;;;;;;;2.30;2.20;;;23.10;96.00;;;;;;5112794;28;20213;-63
2021/06/19 08:00:35;;;;;;;2.33;2.23;;;23.10;94.20;;;;;;5113005;28;20205;-63
2021/06/19 08:03:00;;;;;;;2.23;2.13;;;23.10;93.70;;;;;;5113037;28;20170;-63
2021/06/19 08:05:27;;;;;;;2.57;2.43;;;23.10;94.20;;;;;;5112893;28;20198;-63
2021/06/19 08:07:53;;;;;;;2.53;1.83;;;23.20;93.90;;;;;;5112623;28;20235;-62
2021/06/19 08:10:18;;;;;;;2.40;2.30;;;23.30;93.00;;;;;;5112797;28;20396;-63
2021/06/19 08:12:44;;;;;;;2.17;2.07;;;23.30;93.80;;;;;;5112806;28;20404;-63
2021/06/19 08:15:12;;;;;;;2.40;2.30;;;23.50;94.40;;;;;;5112697;28;20190;-63
2021/06/19 08:17:38;;;;;;;2.20;2.10;;;23.60;94.00;;;;;;5112493;28;20430;-62
2021/06/19 08:20:05;;;;;;;2.97;2.67;;;23.70;93.30;;;;;;5112885;28;20775;-63
2021/06/19 08:22:31;;;;;;;2.40;2.20;;;23.90;92.70;;;;;;5112666;28;20178;-63
2021/06/19 08:24:57;;;;;;;2.13;2.03;;;24.10;92.80;;;;;;5112470;28;20416;-62
2021/06/19 08:27:23;;;;;;;2.20;2.10;;;24.30;92.80;;;;;;5112231;28;20463;-62
2021/06/19 08:29:50;;;;;;;2.33;2.00;;;24.50;93.20;;;;;;5112640;28;20162;-63
2021/06/19 08:32:16;;;;;;;2.30;2.10;;;24.70;92.70;;;;;;5112551;28;20404;-62
2021/06/19 08:34:42;;;;;;;2.40;2.30;;;24.80;92.60;;;;;;5112441;28;20403;-63
2021/06/19 08:37:08;;;;;;;2.20;2.07;;;25.00;91.90;;;;;;5112249;28;20438;-63
2021/06/19 08:39:33;;;;;;;2.13;2.03;;;25.00;91.90;;;;;;5112347;28;20177;-62
2021/06/19 08:41:59;;;;;;;2.50;2.40;;;25.00;91.60;;;;;;5112436;28;20407;-63
2021/06/19 08:44:27;;;;;;;2.00;1.90;;;25.10;90.60;;;;;;5112496;28;20273;-63
2021/06/19 08:46:55;;;;;;;3.40;2.37;;;25.20;90.40;;;;;;5111980;28;20870;-63
2021/06/19 08:49:22;;;;;;;2.77;2.57;;;25.30;90.50;;;;;;5112363;28;20490;-63
2021/06/19 08:51:50;;;;;;;2.97;2.77;;;25.50;90.50;;;;;;5112570;28;20772;-63
2021/06/19 08:54:16;;;;;;;2.40;2.30;;;25.80;90.00;;;;;;5112155;28;20816;-63
2021/06/19 08:56:43;;;;;;;2.80;2.60;;;26.10;90.60;;;;;;5112801;28;20414;-64
2021/06/19 08:59:09;;;;;;;2.70;2.50;;;26.00;87.40;;;;;;5116505;28;20228;-63
2021/06/19 09:01:34;;;;;;;2.20;2.10;;;26.00;86.50;;;;;;5116440;28;20838;-64
2021/06/19 09:04:04;;;;;;;2.70;2.60;;;26.00;86.50;;;;;;5116460;28;20403;-63
2021/06/19 09:06:31;;;;;;;2.70;2.60;;;26.10;85.00;;;;;;5116119;28;20185;-63
2021/06/19 09:09:04;;;;;;;2.33;2.23;;;26.50;84.40;;;;;;5116288;28;20427;-63
2021/06/19 09:11:40;;;;;;;2.50;2.40;;;26.50;83.70;;;;;;5116341;28;20402;-63
2021/06/19 09:14:08;;;;;;;2.53;2.27;;;26.80;84.90;;;;;;5116223;28;20938;-63
2021/06/19 09:16:35;;;;;;;2.17;2.07;;;26.80;84.20;;;;;;5116499;28;20427;-63
2021/06/19 09:19:02;;;;;;;4.07;2.30;;;27.00;82.40;;;;;;5116087;28;20430;-63
2021/06/19 09:21:33;;;;;;;2.20;2.10;;;27.10;81.00;;;;;;5116233;28;20452;-63
2021/06/19 09:23:59;;;;;;;2.30;2.20;;;27.40;81.00;;;;;;5116017;28;20763;-63
2021/06/19 09:26:33;;;;;;;2.57;2.43;;;27.60;82.80;;;;;;5115903;28;20498;-62
2021/06/19 09:29:16;;;;;;;2.67;2.57;;;27.90;78.90;;;;;;5116041;28;20450;-64
2021/06/19 09:31:52;;;;;;;2.77;2.57;;;28.30;81.50;;;;;;5115999;28;20403;-64
2021/06/19 09:34:18;;;;;;;2.57;2.40;;;28.50;79.50;;;;;;5115933;28;20405;-64
2021/06/19 09:36:48;;;;;;;3.90;2.47;;;28.80;78.20;;;;;;5115591;28;20482;-64
2021/06/19 09:39:17;;;;;;;2.80;2.67;;;29.20;78.60;;;;;;5115835;28;20407;-64
2021/06/19 09:41:52;;;;;;;3.07;2.87;;;29.20;76.30;;;;;;5115824;28;20841;-64
2021/06/19 09:44:42;;;;;;;3.10;2.13;;;29.60;76.90;;;;;;5115695;28;20391;-64
2021/06/19 09:47:08;;;;;;;2.80;2.60;;;30.00;77.70;;;;;;5115233;28;20457;-64
2021/06/19 09:49:38;;;;;;;2.77;2.60;;;30.60;75.50;;;;;;5115643;28;20496;-63
2021/06/19 09:52:04;;;;;;;2.30;2.20;;;30.80;72.00;;;;;;5115666;28;20404;-64
2021/06/19 09:54:29;;;;;;;2.47;2.37;;;30.70;73.30;;;;;;5115411;28;20456;-64
2021/06/19 09:57:01;;;;;;;2.77;2.57;;;30.90;70.10;;;;;;5115137;28;20490;-64
2021/06/19 09:59:28;;;;;;;2.80;2.23;;;31.10;72.20;;;;;;5115457;28;20177;-64
2021/06/19 10:01:55;;;;;;;2.73;2.53;;;31.10;67.90;;;;;;5115391;28;20435;-64
2021/06/19 10:04:23;;;;;;;2.87;2.67;;;30.80;69.50;;;;;;5115326;28;21032;-64
2021/06/19 10:06:50;;;;;;;2.70;2.60;;;31.20;70.20;;;;;;5114857;27;20439;-64
2021/06/19 10:09:16;;;;;;;4.10;2.40;;;31.30;67.20;;;;;;5114694;28;20934;-64
2021/06/19 10:11:44;;;;;;;2.50;2.40;;;31.20;66.70;;;;;;5115269;28;20404;-64
2021/06/19 10:14:16;;;;;;;3.67;3.40;;;31.00;64.30;;;;;;5115178;28;20178;-64
2021/06/19 10:16:43;;;;;;;2.47;2.33;;;31.50;68.20;;;;;;5114916;28;20508;-64
2021/06/19 10:19:09;;;;;;;3.10;2.90;;;32.10;62.70;;;;;;5115040;28;20427;-63
2021/06/19 10:21:35;;;;;;;3.37;3.17;;;32.10;62.20;;;;;;5114956;28;20408;-64
2021/06/19 10:24:02;;;;;;;2.37;2.27;;;32.10;64.00;;;;;;5114900;28;20410;-64
2021/06/19 10:26:29;;;;;;;2.83;2.73;;;32.20;63.00;;;;;;5114619;28;20576;-64
2021/06/19 10:28:58;;;;;;;2.80;2.60;;;32.10;59.80;;;;;;5114738;28;20426;-65
2021/06/19 10:31:25;;;;;;;3.77;3.23;;;32.30;61.20;;;;;;5114859;28;20478;-64
2021/06/19 10:33:51;;;;;;;3.03;2.83;;;32.40;61.50;;;;;;5114755;28;20396;-64
2021/06/19 10:36:17;;;;;;;2.90;2.80;;;32.50;60.60;;;;;;5114699;28;20432;-64
2021/06/19 10:38:51;;;;;;;4.30;2.50;;;32.50;58.60;;;;;;5114282;28;20281;-64
2021/06/19 10:41:43;;;;;;;3.00;2.90;;;32.70;58.00;;;;;;5114664;28;20169;-64
2021/06/19 10:44:09;;;;;;;3.33;3.03;;;32.60;57.60;;;;;;5103570;28;20420;-64
2021/06/19 10:46:36;;;;;;;3.17;2.93;;;32.60;57.40;;;;;;5114107;28;20454;-64
2021/06/19 10:49:17;;;;;;;2.93;2.73;;;33.40;60.00;;;;;;5114440;28;20177;-64
2021/06/19 10:51:43;;;;;;;3.30;3.00;;;33.90;58.20;;;;;;5114702;28;20396;-64
2021/06/19 10:54:15;;;;;;;2.40;2.30;;;33.80;60.40;;;;;;5114336;28;20403;-64
2021/06/19 10:56:59;;;;;;;2.87;2.77;;;33.40;61.70;;;;;;5114095;28;20200;-65
2021/06/19 10:59:30;;;;;;;3.07;2.77;;;33.30;63.30;;;;;;5114291;28;20408;-65
2021/06/19 11:02:00;;;;;;;3.70;3.40;;;33.30;62.70;;;;;;5114141;28;20431;-64
2021/06/19 11:04:35;;;;;;;3.60;3.30;;;33.30;62.90;;;;;;5114097;28;20963;-64
2021/06/19 11:07:08;;;;;;;2.73;2.63;;;33.20;61.50;;;;;;5113640;28;20534;-64
2021/06/19 11:09:54;;;;;;;2.93;2.80;;;33.30;62.80;;;;;;5114056;28;20392;-64
2021/06/19 11:12:22;;;;;;;3.53;2.93;;;33.50;60.80;;;;;;5113846;28;20408;-64
2021/06/19 11:15:05;;;;;;;3.20;3.00;;;33.20;60.20;;;;;;5113999;28;20443;-64
2021/06/19 11:17:33;;;;;;;2.93;2.83;;;33.60;61.50;;;;;;5113606;28;20849;-65
2021/06/19 11:20:08;;;;;;;3.83;3.63;;;34.10;60.90;;;;;;5112999;28;20400;-64
2021/06/19 11:22:55;;;;;;;3.20;3.00;;;34.70;62.00;;;;;;5113789;28;20404;-65
2021/06/19 11:28:03;;;;;;;3.57;3.37;;;35.40;59.60;;;;;;5113452;28;20502;-65
2021/06/19 11:30:34;;;;;;;4.83;3.13;;;35.70;58.40;;;;;;5113636;28;20970;-65
2021/06/19 11:33:21;;;;;;;3.70;3.60;;;36.10;58.50;;;;;;5113595;28;20400;-64
2021/06/19 11:36:00;;;;;;;3.30;3.10;;;36.00;56.60;;;;;;5113560;28;20486;-65
2021/06/19 11:38:43;;;;;;;3.70;3.40;;;36.20;57.10;;;;;;5113221;28;20415;-65
2021/06/19 11:41:17;;;;;;;3.37;3.27;;;36.70;57.50;;;;;;5113498;28;20956;-65
2021/06/19 11:43:44;;;;;;;3.70;3.50;;;36.90;55.40;;;;;;5113398;28;20432;-65
2021/06/19 11:46:10;;;;;;;3.00;2.90;;;36.20;54.10;;;;;;5113317;28;20537;-65
2021/06/19 11:49:07;;;;;;;3.90;3.70;;;35.80;55.60;;;;;;5113172;28;20480;-64
2021/06/19 11:51:33;;;;;;;3.30;3.10;;;35.90;56.70;;;;;;5113304;28;20400;-65
2021/06/19 11:54:00;;;;;;;3.00;2.80;;;36.00;57.20;;;;;;5113209;28;20552;-65
2021/06/19 11:56:28;;;;;;;2.80;2.70;;;35.90;56.30;;;;;;5112071;28;20165;-64
2021/06/19 11:59:01;;;;;;;3.00;2.90;;;35.80;56.40;;;;;;5113037;28;20420;-65
2021/06/19 12:01:31;;;;;;;3.60;3.40;;;36.10;56.80;;;;;;5111381;28;20493;-65
2021/06/19 12:04:04;;;;;;;3.00;2.80;;;36.30;55.80;;;;;;5112517;28;20408;-65
2021/06/19 12:06:39;;;;;;;3.40;3.30;;;36.00;55.60;;;;;;5109551;28;20983;-64
2021/06/19 12:09:17;;;;;;;2.93;2.83;;;36.10;55.00;;;;;;5111019;28;20433;-65
2021/06/19 12:11:45;;;;;;;2.57;2.47;;;36.10;54.00;;;;;;5113179;28;20759;-64
2021/06/19 12:14:21;;;;;;;3.27;3.17;;;36.40;55.90;;;;;;5112737;28;20855;-64
2021/06/19 12:16:52;;;;;;;3.27;3.07;;;36.00;55.40;;;;;;5112456;28;20407;-65
2021/06/19 12:19:20;;;;;;;3.57;3.40;;;35.70;56.00;;;;;;5112790;28;20409;-65
2021/06/19 12:21:46;;;;;;;3.70;3.50;;;35.10;56.80;;;;;;5112771;28;20404;-64
2021/06/19 12:24:24;;;;;;;3.27;3.13;;;34.70;56.50;;;;;;5112650;28;20920;-64
2021/06/19 12:27:00;;;;;;;4.97;3.77;;;34.60;58.00;;;;;;5112177;28;20459;-65
2021/06/19 12:29:41;;;;;;;3.73;3.43;;;34.00;57.20;;;;;;5111306;28;20415;-65
2021/06/19 12:32:42;;;;;;;3.97;3.77;;;33.60;58.70;;;;;;5112583;28;20403;-64
2021/06/19 12:35:08;;;;;;;3.80;3.50;;;33.50;58.20;;;;;;5112451;28;20438;-64
2021/06/19 12:37:40;;;;;;;3.87;3.67;;;33.30;59.00;;;;;;5112071;28;20443;-64
2021/06/19 12:40:09;;;;;;;4.10;3.77;;;33.20;59.30;;;;;;5112520;28;20695;-64
2021/06/19 12:42:37;;;;;;;3.33;3.13;;;33.10;59.10;;;;;;5112398;28;20498;-65
2021/06/19 12:45:07;;;;;;;3.90;3.70;;;33.10;59.00;;;;;;5112386;28;20398;-64
2021/06/19 12:47:40;;;;;;;3.60;3.50;;;33.20;59.00;;;;;;5111950;28;20432;-64
2021/06/19 12:50:07;;;;;;;3.97;3.67;;;33.50;59.30;;;;;;5112616;28;20918;-64
2021/06/19 12:52:32;;;;;;;4.33;4.03;;;33.80;58.10;;;;;;5112299;28;20407;-65
2021/06/19 12:55:12;;;;;;;3.43;3.30;;;34.00;59.30;;;;;;5112317;28;20403;-64
2021/06/19 12:57:39;;;;;;;3.43;3.13;;;34.10;58.40;;;;;;5111921;28;20193;-64